| time (UTC) | temp F | wind direction | speed MPH | gust MPH | rain 1hr in | rain 24hr in | rain mn in | humidity % | barometer mb |
| 20260510221200 | 70 | 335 | 1.0 | 4.0 | 1.04 | 0.00 | 1.07 | 93 | 1015.5 |
| 20260510220701 | 70 | 345 | 2.0 | 4.0 | 0.84 | 0.00 | 1.02 | 93 | 1015.5 |
| 20260510220201 | 70 | 306 | 10.0 | 16.0 | 0.75 | 0.00 | 0.79 | 92 | 1015.6 |
| 20260510215701 | 71 | 301 | 9.0 | 17.0 | 0.60 | 0.00 | 0.65 | 92 | 1015.7 |
| 20260510215200 | 71 | 294 | 14.0 | 29.0 | 0.29 | 0.00 | 0.46 | 91 | 1015.8 |
| 20260510214700 | 74 | 294 | 12.0 | 15.0 | 0.12 | 0.00 | 0.16 | 88 | 1015.7 |
| 20260510214200 | 77 | 301 | 9.0 | 14.0 | 0.04 | 0.00 | 0.04 | 85 | 1015.3 |
| 20260510213702 | 78 | 288 | 4.0 | 5.0 | 0.03 | 0.00 | 0.03 | 87 | 1015.0 |
| 20260510213200 | 78 | 47 | 2.0 | 3.0 | 0.03 | 0.00 | 0.03 | 86 | 1014.9 |
| 20260510212702 | 78 | 97 | 1.0 | 2.0 | 0.02 | 0.00 | 0.03 | 86 | 1014.7 |
| 20260510212200 | 78 | 117 | 1.0 | 2.0 | 0.02 | 0.00 | 0.03 | 86 | 1014.6 |
| 20260510211700 | 78 | 126 | 1.0 | 3.0 | 0.02 | 0.00 | 0.02 | 85 | 1014.8 |
| 20260510211201 | 79 | 51 | 3.0 | 4.0 | 0.02 | 0.00 | 0.02 | 84 | 1015.2 |
| 20260510210703 | 80 | 103 | 2.0 | 3.0 | 0.02 | 0.00 | 0.02 | 83 | 1015.2 |
| 20260510210200 | 80 | 84 | 2.0 | 3.0 | 0.00 | 0.00 | 0.02 | 82 | 1015.1 |
| 20260510205700 | 81 | 102 | 3.0 | 5.0 | 0.00 | 0.00 | 0.01 | 78 | 1015.1 |
| 20260510205201 | 81 | 87 | 4.0 | 6.0 | 0.00 | 0.00 | 0.00 | 74 | 1015.3 |
| 20260510204702 | 81 | 110 | 3.0 | 5.0 | 0.00 | 0.00 | 0.00 | 75 | 1015.4 |
| 20260510204201 | 81 | 95 | 4.0 | 6.0 | 0.00 | 0.00 | 0.00 | 74 | 1015.4 |
| 20260510203700 | 81 | 79 | 4.0 | 5.0 | 0.00 | 0.00 | 0.00 | 74 | 1015.5 |
| 20260510203203 | 81 | 94 | 2.0 | 4.0 | 0.00 | 0.00 | 0.00 | 74 | 1015.6 |
| 20260510202700 | 81 | 68 | 2.0 | 3.0 | 0.00 | 0.00 | 0.00 | 72 | 1015.7 |
| 20260510202200 | 81 | 85 | 4.0 | 6.0 | 0.00 | 0.00 | 0.00 | 72 | 1015.7 |
| 20260510201700 | 82 | 88 | 3.0 | 5.0 | 0.00 | 0.00 | 0.00 | 72 | 1015.7 |
| 20260510201200 | 82 | 53 | 5.0 | 7.0 | 0.00 | 0.00 | 0.00 | 72 | 1015.7 |
| 20260510200701 | 83 | 352 | 1.0 | 4.0 | 0.00 | 0.00 | 0.00 | 69 | 1015.8 |
| 20260510200200 | 84 | 47 | 5.0 | 8.0 | 0.00 | 0.00 | 0.00 | 70 | 1015.8 |
| 20260510195700 | 84 | 286 | 6.0 | 9.0 | 0.00 | 0.00 | 0.00 | 64 | 1015.7 |
| 20260510195201 | 84 | 150 | 2.0 | 3.0 | 0.00 | 0.00 | 0.00 | 64 | 1015.8 |
| 20260510194700 | 84 | 139 | 3.0 | 4.0 | 0.00 | 0.00 | 0.00 | 65 | 1015.8 |
| 20260510194200 | 84 | 168 | 5.0 | 6.0 | 0.00 | 0.00 | 0.00 | 66 | 1015.8 |
| 20260510193702 | 84 | 219 | 2.0 | 4.0 | 0.00 | 0.00 | 0.00 | 66 | 1015.8 |
| 20260510193201 | 84 | 246 | 3.0 | 4.0 | 0.00 | 0.00 | 0.00 | 67 | 1015.8 |
| 20260510192700 | 84 | 163 | 4.0 | 6.0 | 0.00 | 0.00 | 0.00 | 67 | 1015.8 |
| 20260510192202 | 84 | 63 | 3.0 | 4.0 | 0.00 | 0.00 | 0.00 | 65 | 1015.8 |
| 20260510191703 | 84 | 117 | 3.0 | 4.0 | 0.00 | 0.00 | 0.00 | 65 | 1015.7 |
| 20260510191201 | 84 | 252 | 4.0 | 6.0 | 0.00 | 0.00 | 0.00 | 68 | 1015.7 |
| 20260510190703 | 83 | 247 | 4.0 | 6.0 | 0.00 | 0.00 | 0.00 | 69 | 1015.6 |
| 20260510190200 | 83 | 108 | 2.0 | 3.0 | 0.00 | 0.00 | 0.00 | 67 | 1015.6 |
| 20260510185700 | 82 | 153 | 3.0 | 5.0 | 0.00 | 0.00 | 0.00 | 65 | 1015.6 |
| 20260510185201 | 82 | 145 | 4.0 | 7.0 | 0.00 | 0.00 | 0.00 | 67 | 1015.4 |
| 20260510184700 | 83 | 183 | 6.0 | 11.0 | 0.00 | 0.00 | 0.00 | 70 | 1015.1 |
| 20260510184201 | 83 | 225 | 4.0 | 7.0 | 0.00 | 0.00 | 0.00 | 70 | 1014.9 |
| 20260510183701 | 83 | 189 | 7.0 | 10.0 | 0.00 | 0.00 | 0.00 | 71 | 1014.9 |
| 20260510183200 | 83 | 219 | 6.0 | 10.0 | 0.00 | 0.00 | 0.00 | 70 | 1015.0 |
| 20260510182703 | 82 | 156 | 6.0 | 9.0 | 0.00 | 0.00 | 0.00 | 66 | 1014.9 |
| 20260510182201 | 82 | 165 | 6.0 | 9.0 | 0.00 | 0.00 | 0.00 | 69 | 1015.0 |
| 20260510181702 | 82 | 178 | 6.0 | 9.0 | 0.00 | 0.00 | 0.00 | 69 | 1015.0 |
| 20260510181201 | 82 | 146 | 4.0 | 5.0 | 0.00 | 0.00 | 0.00 | 71 | 1015.1 |
| 20260510180700 | 82 | 162 | 6.0 | 9.0 | 0.00 | 0.00 | 0.00 | 70 | 1015.1 |
| 20260510180200 | 82 | 149 | 4.0 | 6.0 | 0.00 | 0.00 | 0.00 | 72 | 1015.1 |
| 20260510175702 | 82 | 215 | 3.0 | 5.0 | 0.00 | 0.00 | 0.00 | 72 | 1015.0 |
| 20260510175201 | 82 | 156 | 5.0 | 9.0 | 0.00 | 0.00 | 0.00 | 73 | 1015.0 |
| 20260510174700 | 81 | 170 | 8.0 | 11.0 | 0.00 | 0.00 | 0.00 | 72 | 1014.9 |
| 20260510174200 | 81 | 169 | 9.0 | 13.0 | 0.00 | 0.00 | 0.00 | 71 | 1014.8 |
| 20260510173701 | 81 | 157 | 5.0 | 8.0 | 0.00 | 0.00 | 0.00 | 72 | 1014.9 |
| 20260510173200 | 80 | 196 | 5.0 | 7.0 | 0.00 | 0.00 | 0.00 | 73 | 1014.9 |
| 20260510172701 | 80 | 182 | 7.0 | 11.0 | 0.00 | 0.00 | 0.00 | 71 | 1014.9 |
| 20260510172201 | 80 | 184 | 4.0 | 9.0 | 0.00 | 0.00 | 0.00 | 74 | 1014.8 |
| 20260510171702 | 80 | 162 | 5.0 | 8.0 | 0.00 | 0.00 | 0.00 | 72 | 1014.8 |
| 20260510171201 | 80 | 201 | 2.0 | 5.0 | 0.00 | 0.00 | 0.00 | 73 | 1014.9 |
| 20260510170703 | 80 | 193 | 5.0 | 9.0 | 0.00 | 0.00 | 0.00 | 75 | 1014.8 |
| 20260510170202 | 80 | 190 | 6.0 | 10.0 | 0.00 | 0.00 | 0.00 | 74 | 1014.8 |
| 20260510165700 | 80 | 171 | 5.0 | 6.0 | 0.00 | 0.00 | 0.00 | 77 | 1014.8 |
| 20260510165200 | 80 | 150 | 7.0 | 10.0 | 0.00 | 0.00 | 0.00 | 75 | 1014.8 |
| 20260510164702 | 80 | 174 | 5.0 | 11.0 | 0.00 | 0.00 | 0.00 | 76 | 1014.9 |
| 20260510164201 | 79 | 177 | 6.0 | 9.0 | 0.00 | 0.00 | 0.00 | 76 | 1014.9 |
| 20260510163702 | 79 | 170 | 4.0 | 6.0 | 0.00 | 0.00 | 0.00 | 77 | 1014.9 |
| 20260510163200 | 79 | 161 | 8.0 | 13.0 | 0.00 | 0.00 | 0.00 | 77 | 1014.8 |
| 20260510162702 | 78 | 153 | 5.0 | 9.0 | 0.00 | 0.00 | 0.00 | 78 | 1014.7 |
| 20260510162201 | 78 | 135 | 4.0 | 6.0 | 0.00 | 0.00 | 0.00 | 77 | 1014.7 |
| 20260510161700 | 78 | 167 | 7.0 | 9.0 | 0.00 | 0.00 | 0.00 | 78 | 1014.7 |
| 20260510161203 | 78 | 153 | 5.0 | 10.0 | 0.00 | 0.00 | 0.00 | 78 | 1014.9 |
| 20260510160702 | 78 | 155 | 7.0 | 11.0 | 0.00 | 0.00 | 0.00 | 77 | 1015.0 |
| 20260510160201 | 78 | 165 | 7.0 | 9.0 | 0.00 | 0.00 | 0.00 | 77 | 1015.1 |
| 20260510155701 | 78 | 168 | 6.0 | 9.0 | 0.00 | 0.00 | 0.00 | 76 | 1015.3 |
| 20260510155200 | 78 | 162 | 4.0 | 5.0 | 0.00 | 0.00 | 0.00 | 77 | 1015.3 |
| 20260510154701 | 78 | 101 | 1.0 | 3.0 | 0.00 | 0.00 | 0.00 | 79 | 1015.3 |
| 20260510154201 | 77 | 153 | 4.0 | 5.0 | 0.00 | 0.00 | 0.00 | 78 | 1015.4 |
| 20260510153701 | 77 | 179 | 4.0 | 7.0 | 0.00 | 0.00 | 0.00 | 78 | 1015.4 |
| 20260510153202 | 77 | 143 | 2.0 | 5.0 | 0.00 | 0.00 | 0.00 | 79 | 1015.5 |
| 20260510152701 | 77 | 95 | 2.0 | 3.0 | 0.00 | 0.00 | 0.00 | 79 | 1015.5 |
| 20260510152201 | 76 | 115 | 3.0 | 6.0 | 0.00 | 0.00 | 0.00 | 79 | 1015.6 |
| 20260510151701 | 76 | 164 | 5.0 | 7.0 | 0.00 | 0.00 | 0.00 | 79 | 1015.7 |
| 20260510151201 | 76 | 161 | 4.0 | 6.0 | 0.00 | 0.00 | 0.00 | 79 | 1015.7 |
| 20260510150701 | 75 | 167 | 1.0 | 3.0 | 0.00 | 0.00 | 0.00 | 82 | 1015.7 |
| 20260510150200 | 75 | 143 | 3.0 | 4.0 | 0.00 | 0.00 | 0.00 | 81 | 1015.7 |
| 20260510145701 | 75 | 156 | 4.0 | 4.0 | 0.00 | 0.00 | 0.00 | 81 | 1015.7 |
| 20260510145200 | 75 | 176 | 3.0 | 3.0 | 0.00 | 0.00 | 0.00 | 80 | 1015.8 |
| 20260510144700 | 75 | 126 | 1.0 | 3.0 | 0.00 | 0.00 | 0.00 | 81 | 1015.8 |
| 20260510144201 | 75 | 141 | 3.0 | 4.0 | 0.00 | 0.00 | 0.00 | 81 | 1015.9 |
| 20260510143700 | 74 | 114 | 3.0 | 4.0 | 0.00 | 0.00 | 0.00 | 83 | 1015.9 |
| 20260510143200 | 74 | 78 | 4.0 | 6.0 | 0.00 | 0.00 | 0.00 | 83 | 1015.9 |
| 20260510142701 | 74 | 139 | 2.0 | 4.0 | 0.00 | 0.00 | 0.00 | 83 | 1016.0 |
| 20260510142200 | 74 | 48 | 2.0 | 4.0 | 0.00 | 0.00 | 0.00 | 84 | 1016.0 |
| 20260510141700 | 73 | 113 | 2.0 | 3.0 | 0.00 | 0.00 | 0.00 | 85 | 1016.1 |
| 20260510141200 | 72 | 59 | 4.0 | 5.0 | 0.00 | 0.00 | 0.00 | 85 | 1016.1 |
| 20260510140701 | 72 | 103 | 2.0 | 4.0 | 0.00 | 0.00 | 0.00 | 86 | 1016.1 |
| 20260510140202 | 71 | 83 | 2.0 | 3.0 | 0.00 | 0.00 | 0.00 | 89 | 1015.9 |
| 20260510135701 | 71 | 320 | 35.0 | 36.0 | 0.00 | 0.00 | 0.00 | 89 | 1015.6 |
| 20260510135200 | 70 | 320 | 32.0 | 36.0 | 0.00 | 0.00 | 0.00 | 90 | 1015.9 |
| 20260510134702 | 70 | 319 | 35.0 | 36.0 | 0.00 | 0.00 | 0.00 | 91 | 1016.1 |
| 20260510134201 | 69 | 319 | 34.0 | 36.0 | 0.00 | 0.00 | 0.00 | 92 | 1016.2 |
| 20260510133702 | 69 | 320 | 35.0 | 36.0 | 0.00 | 0.00 | 0.00 | 92 | 1016.3 |
| 20260510133200 | 69 | 320 | 35.0 | 36.0 | 0.00 | 0.00 | 0.00 | 92 | 1016.3 |
| 20260510132701 | 69 | 319 | 35.0 | 36.0 | 0.00 | 0.00 | 0.00 | 92 | 1016.6 |
| 20260510132200 | 69 | 320 | 35.0 | 37.0 | 0.00 | 0.00 | 0.00 | 92 | 1016.9 |
| 20260510131700 | 69 | 320 | 36.0 | 37.0 | 0.00 | 0.00 | 0.00 | 92 | 1017.1 |
| 20260510131202 | 69 | 322 | 35.0 | 40.0 | 0.00 | 0.00 | 0.00 | 92 | 1017.1 |
| 20260510130703 | 69 | 318 | 36.0 | 39.0 | 0.00 | 0.00 | 0.00 | 92 | 1016.9 |
| 20260510130202 | 69 | 320 | 3.0 | 5.0 | 0.00 | 0.00 | 0.00 | 92 | 1017.0 |
| 20260510125702 | 69 | 318 | 4.0 | 7.0 | 0.00 | 0.00 | 0.00 | 92 | 1017.0 |
| 20260510125201 | 69 | 328 | 3.0 | 6.0 | 0.00 | 0.00 | 0.00 | 92 | 1017.0 |
| 20260510124702 | 69 | 323 | 5.0 | 9.0 | 0.00 | 0.00 | 0.00 | 92 | 1017.0 |
| 20260510124201 | 69 | 322 | 2.0 | 6.0 | 0.00 | 0.00 | 0.00 | 93 | 1016.9 |
| 20260510123701 | 69 | 325 | 2.0 | 5.0 | 0.00 | 0.00 | 0.00 | 93 | 1016.8 |
| 20260510123201 | 69 | 24 | 2.0 | 3.0 | 0.00 | 0.00 | 0.00 | 93 | 1016.7 |
| 20260510122703 | 69 | 340 | 1.0 | 3.0 | 0.00 | 0.00 | 0.00 | 93 | 1016.1 |
| 20260510122200 | 69 | 340 | 2.0 | 2.0 | 0.00 | 0.00 | 0.00 | 93 | 1015.8 |
| 20260510121700 | 69 | 308 | 1.0 | 3.0 | 0.00 | 0.00 | 0.00 | 93 | 1015.7 |
| 20260510121200 | 68 | 72 | 4.0 | 6.0 | 0.00 | 0.00 | 0.00 | 94 | 1015.7 |
| 20260510120702 | 68 | 10 | 2.0 | 2.0 | 0.00 | 0.00 | 0.00 | 94 | 1015.7 |
| 20260510120201 | 68 | 4 | 2.0 | 2.0 | 0.00 | 0.00 | 0.00 | 94 | 1015.6 |
| 20260510115700 | 68 | 94 | 2.0 | 3.0 | 0.00 | 0.00 | 0.00 | 94 | 1015.6 |
| 20260510115200 | 68 | 81 | 2.0 | 2.0 | 0.00 | 0.00 | 0.00 | 94 | 1015.5 |
| 20260510114700 | 68 | 50 | 3.0 | 5.0 | 0.00 | 0.00 | 0.00 | 94 | 1015.6 |
| 20260510114200 | 68 | 7 | 3.0 | 4.0 | 0.00 | 0.00 | 0.00 | 93 | 1015.5 |
| 20260510113700 | 68 | 32 | 3.0 | 4.0 | 0.00 | 0.00 | 0.00 | 93 | 1015.3 |
| 20260510113201 | 68 | 39 | 4.0 | 4.0 | 0.00 | 0.00 | 0.00 | 93 | 1015.2 |
| 20260510112701 | 68 | 46 | 3.0 | 4.0 | 0.00 | 0.00 | 0.00 | 93 | 1015.1 |
| 20260510112210 | 68 | 52 | 2.0 | 3.0 | 0.00 | 0.00 | 0.00 | 93 | 1014.8 |
| 20260510111700 | 68 | 55 | 3.0 | 4.0 | 0.00 | 0.00 | 0.00 | 93 | 1014.6 |
| 20260510111201 | 68 | 57 | 3.0 | 4.0 | 0.00 | 0.00 | 0.00 | 93 | 1014.3 |
| 20260510110701 | 68 | 68 | 2.0 | 2.0 | 0.00 | 0.00 | 0.00 | 93 | 1014.3 |
| 20260510110202 | 68 | 41 | 1.0 | 1.0 | 0.00 | 0.00 | 0.00 | 93 | 1014.1 |
| 20260510105700 | 68 | 341 | 1.0 | 2.0 | 0.00 | 0.00 | 0.00 | 93 | 1013.9 |
| 20260510105200 | 68 | 338 | 1.0 | 1.0 | 0.00 | 0.00 | 0.00 | 93 | 1013.8 |
| 20260510104701 | 68 | 154 | 3.0 | 5.0 | 0.00 | 0.00 | 0.00 | 93 | 1013.6 |
| 20260510104203 | 68 | 159 | 6.0 | 10.0 | 0.00 | 0.00 | 0.00 | 93 | 1013.6 |
| 20260510103700 | 68 | 148 | 4.0 | 5.0 | 0.00 | 0.00 | 0.00 | 92 | 1013.8 |
| 20260510103201 | 68 | 130 | 1.0 | 3.0 | 0.00 | 0.00 | 0.00 | 92 | 1014.1 |
| 20260510102701 | 68 | 116 | 1.0 | 1.0 | 0.00 | 0.00 | 0.00 | 92 | 1014.2 |
| 20260510102200 | 68 | 4 | 2.0 | 2.0 | 0.00 | 0.00 | 0.00 | 92 | 1014.3 |
| 20260510101704 | 68 | 75 | 1.0 | 2.0 | 0.00 | 0.00 | 0.00 | 92 | 1014.3 |
| 20260510101200 | 68 | 92 | 2.0 | 2.0 | 0.00 | 0.00 | 0.00 | 92 | 1014.3 |
| 20260510100700 | 68 | 114 | 2.0 | 2.0 | 0.00 | 0.00 | 0.00 | 92 | 1014.3 |
| 20260510100200 | 69 | 111 | 2.0 | 3.0 | 0.00 | 0.00 | 0.00 | 92 | 1014.2 |
| 20260510095700 | 69 | 70 | 3.0 | 3.0 | 0.00 | 0.00 | 0.00 | 92 | 1014.1 |
| 20260510095200 | 69 | 62 | 3.0 | 4.0 | 0.00 | 0.00 | 0.00 | 92 | 1014.1 |
| 20260510094702 | 69 | 6 | 3.0 | 3.0 | 0.00 | 0.00 | 0.00 | 92 | 1014.2 |
| 20260510094200 | 69 | 7 | 3.0 | 3.0 | 0.00 | 0.00 | 0.00 | 92 | 1014.1 |
| 20260510093701 | 69 | 23 | 2.0 | 3.0 | 0.00 | 0.00 | 0.00 | 92 | 1014.1 |
| 20260510093201 | 69 | 348 | 2.0 | 2.0 | 0.00 | 0.00 | 0.00 | 92 | 1014.0 |
| 20260510092701 | 69 | 341 | 3.0 | 4.0 | 0.00 | 0.00 | 0.00 | 92 | 1014.0 |
| 20260510092202 | 69 | 355 | 2.0 | 2.0 | 0.00 | 0.00 | 0.00 | 92 | 1013.8 |
| 20260510091701 | 69 | 24 | 2.0 | 2.0 | 0.00 | 0.00 | 0.00 | 92 | 1013.5 |
| 20260510091201 | 69 | 48 | 2.0 | 2.0 | 0.00 | 0.00 | 0.00 | 92 | 1013.2 |
| 20260510090701 | 69 | 78 | 3.0 | 4.0 | 0.00 | 0.00 | 0.00 | 92 | 1012.9 |
| 20260510090200 | 69 | 110 | 1.0 | 1.0 | 0.00 | 0.00 | 0.00 | 92 | 1012.8 |
| 20260510085700 | 69 | 128 | 2.0 | 3.0 | 0.00 | 0.00 | 0.00 | 92 | 1012.6 |
| 20260510085200 | 69 | 103 | 2.0 | 2.0 | 0.00 | 0.00 | 0.00 | 92 | 1012.5 |
| 20260510084701 | 69 | 107 | 2.0 | 2.0 | 0.00 | 0.00 | 0.00 | 92 | 1012.5 |
| 20260510084200 | 69 | 135 | 3.0 | 3.0 | 0.00 | 0.00 | 0.00 | 92 | 1012.3 |
| 20260510083700 | 69 | 128 | 2.0 | 2.0 | 0.00 | 0.00 | 0.00 | 92 | 1012.3 |
| 20260510083200 | 69 | 130 | 2.0 | 2.0 | 0.00 | 0.00 | 0.00 | 92 | 1012.2 |
| 20260510082700 | 69 | 76 | 2.0 | 3.0 | 0.00 | 0.00 | 0.00 | 92 | 1012.1 |
| 20260510082200 | 69 | 103 | 2.0 | 3.0 | 0.00 | 0.00 | 0.00 | 92 | 1012.1 |
| 20260510081702 | 69 | 356 | 2.0 | 3.0 | 0.00 | 0.00 | 0.00 | 92 | 1012.1 |
| 20260510081201 | 69 | 108 | 2.0 | 3.0 | 0.00 | 0.00 | 0.00 | 91 | 1012.2 |
| 20260510080700 | 69 | 222 | 2.0 | 4.0 | 0.00 | 0.00 | 0.00 | 91 | 1012.2 |
| 20260510080203 | 69 | 176 | 2.0 | 3.0 | 0.00 | 0.00 | 0.00 | 91 | 1012.3 |
| 20260510075700 | 69 | 110 | 1.0 | 2.0 | 0.00 | 0.00 | 0.00 | 91 | 1012.4 |
| 20260510075201 | 68 | 23 | 2.0 | 3.0 | 0.00 | 0.00 | 0.00 | 91 | 1012.3 |
| 20260510074700 | 68 | 305 | 2.0 | 4.0 | 0.00 | 0.00 | 0.00 | 92 | 1012.3 |
| 20260510074201 | 69 | 156 | 6.0 | 8.0 | 0.00 | 0.00 | 0.00 | 92 | 1012.2 |
| 20260510073700 | 69 | 151 | 4.0 | 5.0 | 0.00 | 0.00 | 0.00 | 92 | 1012.3 |
| 20260510073201 | 69 | 142 | 2.0 | 3.0 | 0.00 | 0.00 | 0.00 | 92 | 1012.4 |
| 20260510072700 | 69 | 131 | 2.0 | 3.0 | 0.00 | 0.00 | 0.00 | 92 | 1012.3 |
| 20260510072201 | 69 | 139 | 4.0 | 6.0 | 0.00 | 0.00 | 0.00 | 92 | 1012.4 |
| 20260510071700 | 69 | 129 | 1.0 | 2.0 | 0.00 | 0.00 | 0.00 | 92 | 1012.4 |
| 20260510071200 | 69 | 156 | 3.0 | 5.0 | 0.00 | 0.00 | 0.00 | 92 | 1012.4 |
| 20260510070703 | 69 | 100 | 1.0 | 2.0 | 0.00 | 0.00 | 0.00 | 92 | 1012.2 |
| 20260510070200 | 69 | 140 | 4.0 | 6.0 | 0.00 | 0.00 | 0.00 | 92 | 1012.2 |
| 20260510065700 | 69 | 159 | 6.0 | 8.0 | 0.00 | 0.00 | 0.00 | 92 | 1012.2 |
| 20260510065202 | 69 | 153 | 4.0 | 5.0 | 0.00 | 0.00 | 0.00 | 92 | 1012.3 |
| 20260510064701 | 69 | 159 | 4.0 | 7.0 | 0.00 | 0.00 | 0.00 | 92 | 1012.3 |
| 20260510064200 | 69 | 169 | 4.0 | 8.0 | 0.00 | 0.00 | 0.00 | 92 | 1012.3 |
| 20260510063702 | 69 | 118 | 2.0 | 2.0 | 0.00 | 0.00 | 0.00 | 92 | 1012.3 |
| 20260510063202 | 69 | 150 | 2.0 | 3.0 | 0.00 | 0.00 | 0.00 | 92 | 1012.2 |
| 20260510062700 | 69 | 151 | 3.0 | 3.0 | 0.00 | 0.00 | 0.00 | 92 | 1012.1 |
| 20260510062201 | 69 | 137 | 3.0 | 6.0 | 0.00 | 0.00 | 0.00 | 92 | 1012.0 |
| 20260510061700 | 69 | 158 | 3.0 | 4.0 | 0.00 | 0.00 | 0.00 | 92 | 1012.1 |
| 20260510061200 | 69 | 159 | 3.0 | 3.0 | 0.00 | 0.00 | 0.00 | 92 | 1012.1 |
| 20260510060701 | 69 | 139 | 4.0 | 6.0 | 0.00 | 0.00 | 0.00 | 92 | 1012.0 |
| 20260510060200 | 69 | 155 | 5.0 | 6.0 | 0.00 | 0.00 | 0.00 | 92 | 1012.0 |
| 20260510055700 | 69 | 151 | 4.0 | 5.0 | 0.00 | 0.00 | 0.00 | 92 | 1012.1 |
| 20260510055200 | 69 | 156 | 5.0 | 6.0 | 0.00 | 0.00 | 0.00 | 92 | 1012.2 |
| 20260510054700 | 69 | 156 | 5.0 | 6.0 | 0.00 | 0.00 | 0.00 | 92 | 1012.2 |
| 20260510054200 | 69 | 151 | 3.0 | 5.0 | 0.00 | 0.00 | 0.00 | 92 | 1012.3 |
| 20260510053701 | 69 | 161 | 4.0 | 5.0 | 0.00 | 0.00 | 0.00 | 92 | 1012.3 |
| 20260510053200 | 69 | 150 | 2.0 | 4.0 | 0.00 | 0.00 | 0.00 | 92 | 1012.3 |
| 20260510052700 | 69 | 165 | 4.0 | 7.0 | 0.00 | 0.00 | 0.00 | 92 | 1012.3 |
| 20260510052203 | 69 | 168 | 6.0 | 11.0 | 0.00 | 0.00 | 0.00 | 92 | 1012.3 |
| 20260510051700 | 69 | 156 | 4.0 | 6.0 | 0.00 | 0.00 | 0.00 | 92 | 1012.4 |
| 20260510051200 | 69 | 167 | 5.0 | 7.0 | 0.00 | 0.00 | 0.00 | 92 | 1012.4 |
| 20260510050700 | 69 | 154 | 6.0 | 8.0 | 0.00 | 0.00 | 0.00 | 92 | 1012.3 |
| 20260510050202 | 69 | 160 | 5.0 | 8.0 | 0.00 | 0.00 | 0.00 | 92 | 1012.4 |
| 20260510045701 | 69 | 145 | 5.0 | 7.0 | 0.00 | 0.00 | 0.19 | 92 | 1012.3 |
| 20260510045204 | 69 | 155 | 4.0 | 8.0 | 0.00 | 0.00 | 0.19 | 92 | 1012.3 |
| 20260510044700 | 69 | 156 | 7.0 | 9.0 | 0.00 | 0.00 | 0.19 | 92 | 1012.4 |
| 20260510044201 | 69 | 153 | 5.0 | 7.0 | 0.00 | 0.00 | 0.19 | 92 | 1012.4 |
| 20260510043701 | 69 | 168 | 6.0 | 9.0 | 0.00 | 0.00 | 0.19 | 92 | 1012.4 |
| 20260510043200 | 69 | 150 | 5.0 | 7.0 | 0.00 | 0.00 | 0.19 | 92 | 1012.4 |
| 20260510042701 | 69 | 144 | 4.0 | 7.0 | 0.00 | 0.00 | 0.19 | 92 | 1012.4 |
| 20260510042200 | 69 | 129 | 3.0 | 4.0 | 0.00 | 0.00 | 0.19 | 92 | 1012.3 |
| 20260510041701 | 69 | 152 | 4.0 | 6.0 | 0.00 | 0.00 | 0.19 | 92 | 1012.4 |
| 20260510041200 | 69 | 148 | 5.0 | 6.0 | 0.00 | 0.00 | 0.19 | 92 | 1012.4 |
| 20260510040702 | 69 | 145 | 4.0 | 5.0 | 0.00 | 0.00 | 0.19 | 92 | 1012.4 |
| 20260510040201 | 69 | 142 | 4.0 | 5.0 | 0.00 | 0.00 | 0.19 | 92 | 1012.5 |
| 20260510035700 | 69 | 135 | 4.0 | 4.0 | 0.00 | 0.00 | 0.19 | 92 | 1012.6 |
| 20260510035200 | 69 | 156 | 5.0 | 9.0 | 0.00 | 0.00 | 0.19 | 92 | 1012.6 |
| 20260510034701 | 69 | 155 | 6.0 | 9.0 | 0.00 | 0.00 | 0.19 | 92 | 1012.6 |
| 20260510034201 | 69 | 153 | 6.0 | 8.0 | 0.00 | 0.00 | 0.19 | 92 | 1012.6 |
| 20260510033700 | 69 | 145 | 4.0 | 4.0 | 0.00 | 0.00 | 0.19 | 92 | 1012.4 |
| 20260510033201 | 69 | 124 | 4.0 | 5.0 | 0.00 | 0.00 | 0.19 | 92 | 1012.5 |
| 20260510032701 | 69 | 135 | 3.0 | 4.0 | 0.00 | 0.00 | 0.19 | 92 | 1012.5 |
| 20260510032200 | 69 | 111 | 2.0 | 3.0 | 0.00 | 0.00 | 0.19 | 92 | 1012.5 |
| 20260510031703 | 69 | 145 | 4.0 | 5.0 | 0.00 | 0.00 | 0.19 | 92 | 1012.5 |
| 20260510031202 | 69 | 149 | 4.0 | 7.0 | 0.00 | 0.00 | 0.19 | 92 | 1012.4 |
| 20260510030700 | 69 | 129 | 2.0 | 5.0 | 0.00 | 0.00 | 0.19 | 92 | 1012.4 |
| 20260510030201 | 69 | 153 | 4.0 | 8.0 | 0.00 | 0.00 | 0.19 | 92 | 1012.4 |
| 20260510025701 | 69 | 145 | 4.0 | 5.0 | 0.00 | 0.00 | 0.19 | 92 | 1012.3 |
| 20260510025200 | 69 | 151 | 5.0 | 6.0 | 0.00 | 0.00 | 0.19 | 92 | 1012.2 |
| 20260510024701 | 69 | 161 | 5.0 | 6.0 | 0.00 | 0.00 | 0.19 | 92 | 1012.2 |
| 20260510024200 | 69 | 159 | 4.0 | 5.0 | 0.00 | 0.00 | 0.19 | 92 | 1012.1 |
| 20260510023701 | 69 | 143 | 3.0 | 5.0 | 0.00 | 0.00 | 0.19 | 92 | 1012.0 |
| 20260510023201 | 69 | 157 | 4.0 | 5.0 | 0.00 | 0.00 | 0.19 | 92 | 1012.0 |
| 20260510022701 | 69 | 150 | 5.0 | 6.0 | 0.00 | 0.00 | 0.19 | 91 | 1011.9 |
| 20260510022201 | 69 | 106 | 2.0 | 4.0 | 0.00 | 0.00 | 0.19 | 91 | 1012.0 |
| 20260510021701 | 69 | 92 | 1.0 | 3.0 | 0.00 | 0.00 | 0.19 | 91 | 1011.9 |
| 20260510021200 | 70 | 99 | 2.0 | 3.0 | 0.00 | 0.00 | 0.19 | 91 | 1011.8 |
| 20260510020701 | 70 | 103 | 2.0 | 2.0 | 0.00 | 0.00 | 0.19 | 91 | 1011.8 |
| 20260510020200 | 70 | 107 | 1.0 | 2.0 | 0.00 | 0.00 | 0.19 | 90 | 1011.6 |
| 20260510015702 | 70 | 112 | 2.0 | 3.0 | 0.00 | 0.00 | 0.19 | 90 | 1011.6 |
| 20260510015201 | 70 | 99 | 2.0 | 3.0 | 0.00 | 0.00 | 0.19 | 90 | 1011.6 |
| 20260510014702 | 71 | 84 | 2.0 | 4.0 | 0.00 | 0.00 | 0.19 | 89 | 1011.5 |
| 20260510014200 | 71 | 108 | 1.0 | 2.0 | 0.00 | 0.00 | 0.19 | 89 | 1011.6 |
| 20260510013701 | 71 | 89 | 1.0 | 2.0 | 0.00 | 0.00 | 0.19 | 89 | 1011.4 |
| 20260510013200 | 71 | 134 | 3.0 | 4.0 | 0.00 | 0.00 | 0.19 | 88 | 1011.4 |
| 20260510012701 | 71 | 143 | 2.0 | 4.0 | 0.00 | 0.00 | 0.19 | 88 | 1011.3 |
| 20260510012200 | 71 | 154 | 4.0 | 4.0 | 0.00 | 0.00 | 0.19 | 88 | 1011.2 |
| 20260510011700 | 71 | 152 | 2.0 | 4.0 | 0.00 | 0.00 | 0.19 | 88 | 1011.1 |
| 20260510011200 | 71 | 122 | 1.0 | 3.0 | 0.00 | 0.00 | 0.19 | 87 | 1011.0 |
| 20260510010700 | 72 | 126 | 1.0 | 2.0 | 0.00 | 0.00 | 0.19 | 87 | 1011.0 |
| 20260510010201 | 72 | 155 | 3.0 | 5.0 | 0.00 | 0.00 | 0.19 | 87 | 1010.9 |
| 20260510005700 | 72 | 119 | 2.0 | 5.0 | 0.00 | 0.00 | 0.19 | 86 | 1010.8 |
| 20260510005200 | 72 | 164 | 2.0 | 4.0 | 0.00 | 0.00 | 0.19 | 86 | 1010.7 |
| 20260510004700 | 72 | 128 | 3.0 | 5.0 | 0.00 | 0.00 | 0.19 | 85 | 1010.8 |
| 20260510004200 | 73 | 96 | 2.0 | 4.0 | 0.00 | 0.00 | 0.19 | 85 | 1010.8 |
| 20260510003700 | 73 | 156 | 3.0 | 6.0 | 0.00 | 0.00 | 0.19 | 84 | 1010.7 |
| 20260510003200 | 73 | 163 | 5.0 | 9.0 | 0.00 | 0.00 | 0.19 | 84 | 1010.7 |
| 20260510002700 | 73 | 153 | 4.0 | 6.0 | 0.00 | 0.00 | 0.19 | 83 | 1010.8 |
| 20260510002200 | 73 | 134 | 4.0 | 6.0 | 0.00 | 0.00 | 0.19 | 83 | 1010.8 |
| 20260510001700 | 73 | 153 | 6.0 | 9.0 | 0.00 | 0.00 | 0.19 | 82 | 1010.7 |
| 20260510001201 | 74 | 131 | 3.0 | 6.0 | 0.00 | 0.00 | 0.19 | 83 | 1010.7 |
| 20260510000700 | 74 | 147 | 3.0 | 6.0 | 0.00 | 0.00 | 0.19 | 83 | 1010.7 |
| 20260510000204 | 74 | 140 | 4.0 | 5.0 | 0.00 | 0.00 | 0.19 | 83 | 1010.8 |
| 20260509235700 | 74 | 160 | 5.0 | 7.0 | 0.00 | 0.00 | 0.19 | 83 | 1010.7 |
| 20260509235201 | 74 | 107 | 6.0 | 9.0 | 0.00 | 0.00 | 0.19 | 83 | 1010.6 |
| 20260509234700 | 74 | 151 | 5.0 | 7.0 | 0.00 | 0.00 | 0.19 | 83 | 1010.6 |
| 20260509234200 | 74 | 153 | 8.0 | 13.0 | 0.00 | 0.00 | 0.19 | 82 | 1010.4 |
| 20260509233701 | 74 | 107 | 7.0 | 12.0 | 0.00 | 0.00 | 0.19 | 82 | 1010.6 |
| 20260509233201 | 75 | 106 | 8.0 | 12.0 | 0.00 | 0.00 | 0.19 | 82 | 1010.5 |
| 20260509232700 | 76 | 134 | 10.0 | 14.0 | 0.00 | 0.00 | 0.19 | 81 | 1010.5 |
| 20260509232201 | 76 | 118 | 8.0 | 14.0 | 0.00 | 0.00 | 0.19 | 81 | 1010.4 |
| 20260509231701 | 78 | 142 | 6.0 | 9.0 | 0.00 | 0.00 | 0.19 | 81 | 1010.2 |
| 20260509231201 | 79 | 100 | 8.0 | 12.0 | 0.00 | 0.00 | 0.19 | 80 | 1010.2 |
| 20260509230701 | 80 | 109 | 8.0 | 13.0 | 0.00 | 0.00 | 0.19 | 80 | 1010.0 |
| 20260509230201 | 80 | 77 | 7.0 | 8.0 | 0.00 | 0.00 | 0.19 | 78 | 1009.9 |
| 20260509225701 | 80 | 79 | 5.0 | 6.0 | 0.00 | 0.00 | 0.19 | 78 | 1010.0 |
| 20260509225200 | 80 | 72 | 6.0 | 7.0 | 0.00 | 0.00 | 0.19 | 78 | 1010.0 |
| 20260509224700 | 81 | 99 | 4.0 | 5.0 | 0.00 | 0.00 | 0.19 | 77 | 1009.9 |
| 20260509224200 | 82 | 86 | 3.0 | 4.0 | 0.00 | 0.00 | 0.19 | 76 | 1010.0 |
| 20260509223700 | 82 | 72 | 4.0 | 5.0 | 0.00 | 0.00 | 0.19 | 76 | 1009.8 |
| 20260509223201 | 82 | 75 | 3.0 | 6.0 | 0.00 | 0.00 | 0.19 | 77 | 1009.7 |
| 20260509222701 | 82 | 60 | 3.0 | 4.0 | 0.00 | 0.00 | 0.19 | 78 | 1009.6 |
| 20260509222204 | 81 | 10 | 0.0 | 2.0 | 0.00 | 0.00 | 0.19 | 78 | 1009.5 |
| 20260509221700 | 81 | 79 | 2.0 | 4.0 | 0.00 | 0.00 | 0.19 | 78 | 1009.3 |